createdAt,value
2023-04-27T00:01:43.955Z,92.80
2023-04-27T00:04:11.601Z,93.10
2023-04-27T00:06:39.084Z,93.30
2023-04-27T00:09:06.794Z,93.00
2023-04-27T00:11:34.157Z,93.10
2023-04-27T00:14:01.477Z,93.10
2023-04-27T00:16:28.830Z,93.10
2023-04-27T00:18:56.155Z,93.40
2023-04-27T00:21:23.547Z,94.00
2023-04-27T00:23:50.850Z,94.00
2023-04-27T00:26:18.277Z,93.70
2023-04-27T00:28:48.947Z,93.90
2023-04-27T00:31:16.485Z,94.30
2023-04-27T00:33:43.845Z,94.80
2023-04-27T00:36:11.377Z,94.40
2023-04-27T00:38:38.702Z,94.80
2023-04-27T00:41:07.713Z,94.20
2023-04-27T00:43:42.557Z,94.30
2023-04-27T00:46:11.072Z,94.20
2023-04-27T00:48:38.528Z,94.00
2023-04-27T00:51:06.340Z,94.00
2023-04-27T00:53:34.309Z,94.20
2023-04-27T00:56:01.668Z,94.20
2023-04-27T00:58:29.608Z,94.20
2023-04-27T01:00:57.072Z,94.10
2023-04-27T01:03:24.549Z,94.00
2023-04-27T01:05:52.101Z,93.50
2023-04-27T01:08:19.408Z,93.80
2023-04-27T01:10:46.720Z,93.90
2023-04-27T01:13:14.039Z,94.10
2023-04-27T01:15:41.369Z,94.10
2023-04-27T01:18:10.311Z,94.50
2023-04-27T01:20:38.614Z,94.20
2023-04-27T01:23:06.437Z,94.10
2023-04-27T01:25:33.767Z,94.20
2023-04-27T01:28:03.000Z,94.50
2023-04-27T01:30:30.685Z,94.50
2023-04-27T01:32:59.551Z,94.70
2023-04-27T01:35:28.381Z,94.90
2023-04-27T01:38:00.364Z,95.10
2023-04-27T01:40:27.793Z,95.40
2023-04-27T01:42:55.091Z,95.30
2023-04-27T01:45:22.502Z,95.00
2023-04-27T01:47:53.279Z,94.90
2023-04-27T01:50:21.294Z,95.00
2023-04-27T01:52:48.622Z,95.00
2023-04-27T01:55:16.013Z,95.30
2023-04-27T01:57:43.674Z,95.50
2023-04-27T02:00:12.566Z,95.70
2023-04-27T02:02:51.191Z,95.20
2023-04-27T02:05:19.246Z,95.20
2023-04-27T02:07:47.675Z,95.30
2023-04-27T02:10:15.888Z,95.20
2023-04-27T02:12:43.611Z,95.10
2023-04-27T02:15:11.007Z,95.30
2023-04-27T02:17:39.552Z,95.80
2023-04-27T02:20:07.608Z,95.40
2023-04-27T02:22:34.959Z,95.60
2023-04-27T02:25:02.980Z,96.10
2023-04-27T02:27:30.556Z,96.60
2023-04-27T02:29:58.696Z,96.40
2023-04-27T02:32:27.211Z,96.60
2023-04-27T02:34:55.414Z,96.60
2023-04-27T02:37:23.012Z,96.50
2023-04-27T02:39:50.600Z,96.60
2023-04-27T02:42:18.298Z,96.90
2023-04-27T02:44:45.675Z,97.50
2023-04-27T02:47:13.181Z,97.90
2023-04-27T02:49:43.186Z,98.30
2023-04-27T02:52:10.640Z,98.70
2023-04-27T02:54:38.083Z,98.80
2023-04-27T02:57:05.494Z,99.50
2023-04-27T02:59:33.362Z,99.50
2023-04-27T03:02:00.921Z,99.70
2023-04-27T03:04:28.490Z,99.90
2023-04-27T03:06:56.441Z,99.90
2023-04-27T03:09:23.829Z,99.90
2023-04-27T03:11:51.195Z,99.90
2023-04-27T03:14:18.523Z,99.90
2023-04-27T03:16:46.191Z,99.90
2023-04-27T03:19:14.193Z,99.90
2023-04-27T03:21:41.890Z,99.90
2023-04-27T03:24:09.872Z,99.90
2023-04-27T03:26:37.236Z,99.90
2023-04-27T03:29:04.787Z,99.90
2023-04-27T03:31:32.189Z,99.90
2023-04-27T03:33:59.531Z,99.90
2023-04-27T03:36:27.184Z,99.90
2023-04-27T03:38:54.467Z,99.90
2023-04-27T03:41:22.116Z,99.90
2023-04-27T03:43:50.824Z,99.90
2023-04-27T03:46:18.225Z,99.90
2023-04-27T03:48:47.148Z,99.90
2023-04-27T03:51:15.154Z,99.90
2023-04-27T03:53:44.756Z,99.90
2023-04-27T03:56:12.090Z,99.90
2023-04-27T03:58:39.385Z,99.90
2023-04-27T04:01:21.995Z,99.90
2023-04-27T04:03:51.744Z,99.90
2023-04-27T04:06:19.163Z,99.90
2023-04-27T04:08:46.506Z,99.90
2023-04-27T04:11:13.975Z,99.90
2023-04-27T04:13:42.131Z,99.90
2023-04-27T04:16:09.716Z,99.90
2023-04-27T04:18:37.267Z,99.90
2023-04-27T04:21:06.430Z,99.90
2023-04-27T04:23:33.921Z,99.90
2023-04-27T04:26:02.282Z,99.90
2023-04-27T04:28:33.626Z,99.90
2023-04-27T04:31:01.566Z,99.90
2023-04-27T04:33:29.190Z,99.90
2023-04-27T04:35:56.686Z,99.90
2023-04-27T04:38:24.125Z,99.90
2023-04-27T04:40:52.936Z,99.90
2023-04-27T04:43:21.479Z,99.90
2023-04-27T04:45:49.144Z,99.90
2023-04-27T04:48:16.748Z,99.90
2023-04-27T04:50:46.157Z,99.90
2023-04-27T04:53:14.068Z,99.90
2023-04-27T04:55:42.524Z,99.90
2023-04-27T04:58:11.010Z,99.90
2023-04-27T05:00:39.020Z,99.90
2023-04-27T05:03:07.602Z,99.90
2023-04-27T05:05:35.252Z,99.90
2023-04-27T05:08:02.930Z,99.90
2023-04-27T05:10:30.345Z,99.90
2023-04-27T05:12:57.894Z,99.90
2023-04-27T05:15:25.354Z,99.90
2023-04-27T05:17:54.259Z,99.90
2023-04-27T05:20:21.708Z,99.90
2023-04-27T05:22:49.080Z,99.90
2023-04-27T05:25:16.500Z,99.90
2023-04-27T05:27:43.832Z,99.90
2023-04-27T05:30:11.809Z,99.90
2023-04-27T05:32:39.577Z,99.90
2023-04-27T05:35:07.340Z,99.90
2023-04-27T05:37:34.737Z,99.50
2023-04-27T05:40:02.142Z,99.50
2023-04-27T05:42:29.437Z,99.30
2023-04-27T05:44:56.725Z,99.70
2023-04-27T05:47:24.495Z,99.70
2023-04-27T05:49:52.737Z,99.40
2023-04-27T05:52:20.693Z,99.50
2023-04-27T05:54:48.454Z,99.30
2023-04-27T05:57:16.150Z,99.30
2023-04-27T05:59:43.440Z,99.40
2023-04-27T06:02:11.014Z,99.20
2023-04-27T06:04:38.575Z,99.40
2023-04-27T06:07:10.321Z,99.30
2023-04-27T06:09:38.083Z,99.50
2023-04-27T06:12:06.595Z,99.40
2023-04-27T06:14:34.851Z,99.30
2023-04-27T06:17:02.816Z,99.30
2023-04-27T06:19:30.112Z,99.30
2023-04-27T06:21:57.423Z,99.30
2023-04-27T06:24:24.746Z,99.20
2023-04-27T06:26:52.082Z,99.20
2023-04-27T06:29:19.429Z,99.50
2023-04-27T06:31:47.311Z,99.10
2023-04-27T06:34:14.740Z,99.10
2023-04-27T06:36:42.041Z,99.30
2023-04-27T06:39:09.413Z,99.00
2023-04-27T06:41:36.704Z,98.70
2023-04-27T06:44:04.063Z,98.60
2023-04-27T06:46:31.438Z,98.70
2023-04-27T06:48:58.806Z,98.40
2023-04-27T06:51:26.761Z,98.30
2023-04-27T06:53:54.208Z,98.40
2023-04-27T06:56:22.455Z,98.30
2023-04-27T06:58:49.772Z,97.80
2023-04-27T07:01:17.146Z,97.40
2023-04-27T07:03:44.663Z,97.20
2023-04-27T07:06:12.069Z,96.90
2023-04-27T07:08:39.412Z,97.10
2023-04-27T07:11:06.790Z,96.60
2023-04-27T07:13:34.186Z,96.60
2023-04-27T07:16:01.705Z,96.60
2023-04-27T07:18:29.176Z,96.90
2023-04-27T07:20:58.087Z,97.10
2023-04-27T07:23:25.779Z,96.70
2023-04-27T07:25:54.182Z,96.60
2023-04-27T07:28:22.065Z,96.30
2023-04-27T07:30:50.629Z,95.80
2023-04-27T07:33:18.018Z,95.70
2023-04-27T07:35:45.652Z,95.60
2023-04-27T07:38:12.985Z,95.50
2023-04-27T07:40:40.695Z,95.90
2023-04-27T07:43:09.476Z,95.60
2023-04-27T07:45:39.048Z,95.60
2023-04-27T07:48:06.764Z,95.60
2023-04-27T07:50:34.171Z,95.20
2023-04-27T07:53:01.487Z,95.10
2023-04-27T07:55:28.819Z,94.20
2023-04-27T07:57:56.772Z,93.20
2023-04-27T08:00:25.526Z,92.50
2023-04-27T08:02:53.746Z,92.50
2023-04-27T08:05:22.117Z,92.70
2023-04-27T08:07:50.110Z,93.10
2023-04-27T08:10:18.099Z,92.70
2023-04-27T08:12:45.479Z,92.70
2023-04-27T08:15:13.049Z,92.80
2023-04-27T08:17:43.738Z,92.90
2023-04-27T08:20:11.731Z,92.70
2023-04-27T08:22:40.570Z,92.70
2023-04-27T08:25:08.874Z,92.40
2023-04-27T08:27:40.095Z,91.90
2023-04-27T08:30:08.573Z,95.60
2023-04-27T08:32:36.195Z,93.20
2023-04-27T08:35:04.481Z,93.90
2023-04-27T08:37:32.362Z,93.90
2023-04-27T08:39:59.868Z,90.10
2023-04-27T08:42:27.243Z,82.20
2023-04-27T08:44:54.663Z,86.10
2023-04-27T08:47:31.183Z,90.20
2023-04-27T08:50:07.070Z,91.80
2023-04-27T08:52:34.351Z,89.00
2023-04-27T08:55:01.736Z,89.70
2023-04-27T08:57:29.082Z,88.30
2023-04-27T09:00:07.968Z,85.00
2023-04-27T09:02:35.615Z,83.60
2023-04-27T09:05:04.168Z,79.60
2023-04-27T09:07:31.643Z,76.50
2023-04-27T09:10:05.924Z,78.70
2023-04-27T09:12:33.262Z,72.80
2023-04-27T09:15:06.176Z,73.40
2023-04-27T09:17:33.856Z,72.10
2023-04-27T09:20:13.494Z,71.90
2023-04-27T09:22:47.957Z,75.50
2023-04-27T09:25:31.861Z,69.80
2023-04-27T09:27:59.900Z,71.10
2023-04-27T09:30:28.004Z,67.80
2023-04-27T09:33:01.571Z,72.80
2023-04-27T09:35:30.450Z,69.20
2023-04-27T09:37:58.088Z,73.40
2023-04-27T09:40:27.977Z,74.90
2023-04-27T09:43:01.615Z,72.70
2023-04-27T09:45:29.247Z,80.20
2023-04-27T09:47:56.919Z,82.00
2023-04-27T09:50:24.608Z,77.70
2023-04-27T09:52:52.081Z,75.10
2023-04-27T09:55:31.376Z,73.90
2023-04-27T09:58:20.840Z,76.30
2023-04-27T10:01:10.499Z,73.10
2023-04-27T10:04:00.910Z,71.90
2023-04-27T10:06:43.507Z,71.60
2023-04-27T10:09:11.568Z,69.90
2023-04-27T10:11:46.524Z,71.80
2023-04-27T10:14:18.456Z,73.90
2023-04-27T10:16:56.576Z,67.10
2023-04-27T10:19:24.493Z,63.10
2023-04-27T10:21:57.065Z,64.00
2023-04-27T10:24:40.927Z,70.20
2023-04-27T10:27:11.215Z,70.30
2023-04-27T10:29:42.288Z,64.30
2023-04-27T10:32:21.509Z,65.20
2023-04-27T10:34:49.473Z,62.20
2023-04-27T10:37:17.096Z,65.80
2023-04-27T10:39:49.078Z,60.00
2023-04-27T10:42:30.558Z,65.10
2023-04-27T10:44:58.077Z,60.00
2023-04-27T10:47:25.804Z,61.60
2023-04-27T10:49:54.533Z,65.60
2023-04-27T10:52:22.013Z,64.90
2023-04-27T10:54:49.423Z,65.00
2023-04-27T10:57:16.804Z,65.90
2023-04-27T11:00:02.233Z,66.50
2023-04-27T11:02:29.799Z,67.50
2023-04-27T11:04:57.616Z,68.50
2023-04-27T11:07:29.145Z,66.70
2023-04-27T11:09:56.627Z,67.00
2023-04-27T11:12:24.240Z,67.60
2023-04-27T11:14:58.044Z,68.50
2023-04-27T11:17:32.585Z,68.20
2023-04-27T11:20:00.109Z,67.30
2023-04-27T11:27:40.489Z,67.30
2023-04-27T11:30:37.157Z,69.40
2023-04-27T11:33:08.275Z,70.50
2023-04-27T11:35:35.876Z,69.90
2023-04-27T11:38:03.373Z,70.00
2023-04-27T11:40:31.032Z,69.70
2023-04-27T11:43:04.416Z,69.80
2023-04-27T11:45:32.172Z,71.10
2023-04-27T11:47:59.690Z,72.10
2023-04-27T11:50:27.629Z,71.50
2023-04-27T11:52:55.962Z,70.70
2023-04-27T11:55:24.827Z,70.70
2023-04-27T11:57:59.028Z,70.90
2023-04-27T12:00:26.496Z,69.60
2023-04-27T12:02:54.020Z,71.10
2023-04-27T12:05:22.065Z,69.40
2023-04-27T12:07:49.587Z,68.70
2023-04-27T12:10:17.587Z,69.80
2023-04-27T12:12:44.894Z,71.20
2023-04-27T12:15:17.724Z,68.60
2023-04-27T12:17:48.217Z,69.00
2023-04-27T12:20:15.633Z,70.20
2023-04-27T12:22:42.965Z,71.10
2023-04-27T12:25:10.648Z,71.60
2023-04-27T12:27:37.959Z,70.70
2023-04-27T12:30:06.187Z,71.00
2023-04-27T12:32:33.640Z,77.70
2023-04-27T12:35:01.073Z,67.40
2023-04-27T12:37:28.342Z,68.60
2023-04-27T12:39:56.228Z,76.20
2023-04-27T12:42:24.353Z,73.60
2023-04-27T12:44:52.149Z,66.40
2023-04-27T12:47:43.010Z,66.30
2023-04-27T12:50:10.618Z,65.20
2023-04-27T12:52:38.190Z,65.70
2023-04-27T12:55:06.397Z,65.00
2023-04-27T12:57:33.830Z,65.10
2023-04-27T13:00:02.030Z,65.40
2023-04-27T13:02:29.640Z,66.40
2023-04-27T13:04:57.142Z,67.20
2023-04-27T13:07:24.578Z,67.20
2023-04-27T13:09:51.952Z,68.20
2023-04-27T13:12:19.273Z,66.50
2023-04-27T13:14:46.830Z,68.00
2023-04-27T13:17:14.425Z,66.90
2023-04-27T13:20:10.393Z,66.80
2023-04-27T13:22:39.660Z,65.60
2023-04-27T13:25:07.319Z,64.90
2023-04-27T13:27:34.635Z,67.10
2023-04-27T13:30:02.023Z,65.00
2023-04-27T13:32:29.450Z,66.30
2023-04-27T13:34:56.764Z,65.00
2023-04-27T13:37:24.195Z,65.80
2023-04-27T13:39:51.836Z,66.40
2023-04-27T13:42:19.203Z,67.30
2023-04-27T13:44:46.781Z,68.20
2023-04-27T13:47:14.353Z,67.40
2023-04-27T13:49:46.137Z,67.10
2023-04-27T13:52:14.098Z,66.80
2023-04-27T13:54:41.919Z,66.50
2023-04-27T13:57:09.345Z,65.30
2023-04-27T13:59:36.686Z,64.40
2023-04-27T14:02:04.170Z,64.10
2023-04-27T14:04:31.605Z,63.90
2023-04-27T14:06:59.108Z,65.80
2023-04-27T14:10:44.086Z,66.10
2023-04-27T14:16:10.436Z,65.90
2023-04-27T14:25:40.024Z,68.30
2023-04-27T14:28:07.625Z,67.10
2023-04-27T14:30:35.189Z,67.90
2023-04-27T14:33:03.094Z,68.30
2023-04-27T14:35:30.777Z,70.00
2023-04-27T14:38:02.348Z,69.20
2023-04-27T14:40:30.846Z,69.40
2023-04-27T14:42:58.574Z,68.30
2023-04-27T14:45:30.975Z,66.60
2023-04-27T14:48:04.609Z,67.20
2023-04-27T14:50:32.175Z,67.50
2023-04-27T14:52:59.515Z,67.40
2023-04-27T14:55:27.271Z,67.90
2023-04-27T14:57:54.775Z,68.50
2023-04-27T15:00:22.231Z,67.70
2023-04-27T15:02:49.771Z,67.50
2023-04-27T15:05:17.192Z,68.20
2023-04-27T15:07:44.600Z,67.90
2023-04-27T15:10:11.989Z,68.20
2023-04-27T15:12:39.404Z,69.30
2023-04-27T15:15:10.493Z,67.80
2023-04-27T15:17:38.178Z,68.10
2023-04-27T15:20:06.485Z,67.60
2023-04-27T15:22:34.129Z,66.70
2023-04-27T15:25:01.641Z,67.60
2023-04-27T15:27:28.977Z,67.70
2023-04-27T15:29:58.127Z,68.00
2023-04-27T15:32:30.042Z,67.40
2023-04-27T15:34:57.837Z,67.60
2023-04-27T15:37:28.538Z,66.40
2023-04-27T15:39:56.064Z,66.70
2023-04-27T15:42:23.930Z,66.90
2023-04-27T15:44:51.341Z,67.90
2023-04-27T15:47:18.695Z,67.40
2023-04-27T15:49:56.872Z,68.30
2023-04-27T15:52:27.156Z,67.10
2023-04-27T15:54:55.188Z,67.00
2023-04-27T15:57:22.676Z,67.60
2023-04-27T15:59:50.100Z,69.20
2023-04-27T16:02:17.938Z,69.30
2023-04-27T16:04:45.496Z,68.80
2023-04-27T16:07:12.839Z,67.90
2023-04-27T16:09:40.482Z,66.90
2023-04-27T16:12:07.914Z,67.40
2023-04-27T16:14:35.360Z,67.40
2023-04-27T16:17:02.765Z,66.40
2023-04-27T16:19:30.209Z,65.40
2023-04-27T16:21:57.563Z,64.90
2023-04-27T16:24:25.438Z,65.10
2023-04-27T16:26:52.874Z,66.30
2023-04-27T16:29:20.189Z,67.40
2023-04-27T16:31:50.211Z,68.30
2023-04-27T16:34:17.651Z,69.40
2023-04-27T16:36:46.841Z,68.90
2023-04-27T16:39:14.571Z,69.60
2023-04-27T16:41:42.320Z,70.70
2023-04-27T16:44:10.822Z,69.70
2023-04-27T16:46:38.288Z,70.90
2023-04-27T16:49:05.849Z,70.80
2023-04-27T16:51:33.755Z,70.20
2023-04-27T16:54:01.187Z,70.60
2023-04-27T16:56:33.829Z,71.60
2023-04-27T16:59:01.381Z,72.40
2023-04-27T17:01:30.072Z,72.00
2023-04-27T17:03:58.560Z,70.90
2023-04-27T17:06:27.852Z,71.60
2023-04-27T17:08:58.265Z,71.70
2023-04-27T17:11:26.485Z,71.70
2023-04-27T17:13:54.010Z,72.30
2023-04-27T17:16:21.945Z,72.20
2023-04-27T17:18:49.521Z,72.10
2023-04-27T17:21:17.470Z,71.70
2023-04-27T17:40:44.638Z,72.60
2023-04-27T17:43:12.029Z,73.80
2023-04-27T17:45:39.583Z,73.70
2023-04-27T17:48:07.403Z,74.30
2023-04-27T17:50:36.004Z,74.00
2023-04-27T17:53:03.448Z,74.00
2023-04-27T17:55:31.234Z,74.70
2023-04-27T17:57:58.625Z,75.20
2023-04-27T18:00:25.975Z,75.80
2023-04-27T18:02:53.415Z,76.10
2023-04-27T18:05:20.936Z,76.60
2023-04-27T18:07:50.043Z,77.00
2023-04-27T18:10:17.788Z,77.10
2023-04-27T18:12:45.085Z,77.80
2023-04-27T18:15:12.454Z,78.30
2023-04-27T18:17:39.950Z,78.10
2023-04-27T18:20:10.155Z,78.50
2023-04-27T18:22:39.905Z,78.70
2023-04-27T18:25:09.024Z,79.20
2023-04-27T18:27:37.718Z,79.30
2023-04-27T18:30:06.311Z,79.20
2023-04-27T18:32:34.223Z,79.60
2023-04-27T18:35:02.334Z,79.50
2023-04-27T18:37:29.666Z,80.30
2023-04-27T18:39:57.022Z,81.30
2023-04-27T18:42:24.400Z,81.60
2023-04-27T18:44:54.820Z,81.20
2023-04-27T18:47:22.189Z,81.60
2023-04-27T18:49:49.501Z,82.50
2023-04-27T18:52:16.791Z,82.50
2023-04-27T18:54:44.193Z,83.10
2023-04-27T18:57:11.535Z,83.60
2023-04-27T18:59:39.510Z,84.20
2023-04-27T19:02:07.215Z,84.90
2023-04-27T19:04:35.359Z,85.60
2023-04-27T19:07:02.845Z,86.60
2023-04-27T19:09:30.250Z,86.60
2023-04-27T19:12:02.910Z,87.40
2023-04-27T19:14:31.597Z,88.10
2023-04-27T19:16:59.041Z,89.40
2023-04-27T19:19:26.762Z,90.00
2023-04-27T19:21:54.455Z,90.10
2023-04-27T19:24:22.284Z,90.40
2023-04-27T19:26:49.789Z,90.70
2023-04-27T19:29:17.634Z,91.30
2023-04-27T19:31:45.325Z,91.70
2023-04-27T19:34:12.690Z,92.10
2023-04-27T19:36:40.192Z,92.40
2023-04-27T19:39:07.676Z,92.50
2023-04-27T19:41:35.019Z,92.80
2023-04-27T19:44:02.475Z,93.10
2023-04-27T19:46:31.124Z,93.30
2023-04-27T19:48:58.532Z,93.60
2023-04-27T19:51:26.575Z,93.80
2023-04-27T19:53:53.967Z,94.20
2023-04-27T19:56:21.599Z,94.50
2023-04-27T19:58:48.908Z,94.70
2023-04-27T20:01:16.519Z,95.00
2023-04-27T20:03:44.207Z,95.20
2023-04-27T20:06:11.862Z,95.40
2023-04-27T20:08:39.329Z,95.70
2023-04-27T20:11:06.673Z,95.90
2023-04-27T20:13:34.001Z,96.10
2023-04-27T20:16:01.488Z,96.30
2023-04-27T20:18:31.860Z,96.60
2023-04-27T20:20:59.486Z,96.60
2023-04-27T20:23:26.790Z,96.80
2023-04-27T20:25:54.097Z,96.90
2023-04-27T20:28:21.457Z,97.00
2023-04-27T20:30:48.745Z,97.30
2023-04-27T20:33:16.222Z,97.40
2023-04-27T20:35:43.650Z,97.80
2023-04-27T20:38:11.836Z,98.20
2023-04-27T20:40:39.593Z,98.30
2023-04-27T20:43:07.967Z,98.40
2023-04-27T20:45:35.596Z,98.50
2023-04-27T20:48:03.408Z,98.90
2023-04-27T20:50:30.946Z,99.10
2023-04-27T20:52:58.372Z,99.50
2023-04-27T20:55:26.041Z,99.60
2023-04-27T20:57:53.381Z,99.80
2023-04-27T21:00:21.074Z,99.90
2023-04-27T21:02:48.566Z,99.90
2023-04-27T21:05:15.995Z,99.90
2023-04-27T21:07:43.859Z,99.90
2023-04-27T21:10:12.720Z,99.90
2023-04-27T21:12:40.054Z,99.90
2023-04-27T21:15:07.966Z,99.90
2023-04-27T21:17:35.776Z,99.90
2023-04-27T21:20:03.201Z,99.90
2023-04-27T21:22:30.902Z,99.90
2023-04-27T21:24:58.177Z,99.90
2023-04-27T21:27:25.630Z,99.90
2023-04-27T21:29:53.343Z,99.90
2023-04-27T21:32:20.738Z,99.90
2023-04-27T21:34:48.239Z,99.90
2023-04-27T21:37:15.540Z,99.90
2023-04-27T21:39:42.875Z,99.90
2023-04-27T21:42:10.216Z,99.90
2023-04-27T21:44:37.551Z,99.90
2023-04-27T21:47:04.863Z,99.90
2023-04-27T21:49:32.204Z,99.90
2023-04-27T21:51:59.501Z,99.90
2023-04-27T21:54:26.882Z,99.90
2023-04-27T21:56:54.208Z,99.90
2023-04-27T21:59:21.592Z,99.90
2023-04-27T22:01:48.922Z,99.90
2023-04-27T22:04:17.067Z,99.90
2023-04-27T22:06:44.675Z,99.90
2023-04-27T22:09:12.292Z,99.90
2023-04-27T22:11:39.753Z,99.90
2023-04-27T22:14:07.018Z,99.90
2023-04-27T22:16:34.571Z,99.90
2023-04-27T22:19:01.940Z,99.90
2023-04-27T22:21:29.280Z,99.90
2023-04-27T22:23:56.603Z,99.90
2023-04-27T22:26:23.921Z,99.90
2023-04-27T22:28:51.434Z,99.90
2023-04-27T22:31:18.746Z,99.90
2023-04-27T22:33:46.078Z,99.90
2023-04-27T22:36:13.423Z,99.90
2023-04-27T22:38:40.696Z,99.90
2023-04-27T22:41:07.963Z,99.90
2023-04-27T22:43:35.435Z,99.90
2023-04-27T22:46:02.722Z,99.90
2023-04-27T22:48:30.136Z,99.90
2023-04-27T22:50:57.464Z,99.90
2023-04-27T22:53:24.768Z,99.90
2023-04-27T22:55:52.108Z,99.90
2023-04-27T22:58:19.429Z,99.90
2023-04-27T23:00:46.881Z,99.90
2023-04-27T23:03:14.544Z,99.90
2023-04-27T23:05:42.474Z,99.90
2023-04-27T23:08:09.779Z,99.90
2023-04-27T23:10:38.847Z,99.90
2023-04-27T23:13:07.285Z,99.90
2023-04-27T23:15:34.602Z,99.90
2023-04-27T23:18:01.974Z,99.90
2023-04-27T23:20:29.479Z,99.90
2023-04-27T23:22:58.463Z,99.90
2023-04-27T23:25:25.895Z,99.90
2023-04-27T23:27:53.328Z,99.90
2023-04-27T23:30:21.849Z,99.90
2023-04-27T23:32:49.415Z,99.90
2023-04-27T23:35:16.758Z,99.90
2023-04-27T23:37:44.384Z,99.90
2023-04-27T23:40:12.290Z,99.90
2023-04-27T23:42:39.649Z,99.90
2023-04-27T23:45:07.504Z,99.90
2023-04-27T23:47:34.913Z,99.90
2023-04-27T23:50:02.968Z,99.90
2023-04-27T23:52:30.296Z,99.90
2023-04-27T23:54:58.111Z,99.90
2023-04-27T23:57:25.458Z,99.90
2023-04-27T23:59:52.991Z,99.90
